TimeCST,TemperatureF,Dew PointF,Humidity,Sea Level PressureIn,VisibilityMPH,Wind Direction,Wind SpeedMPH,Gust SpeedMPH,PrecipitationIn,Events,Conditions,WindDirDegrees,DateUTC
12:52 AM,34.0,17.1,50,30.18,10.0,NNE,8.1,-,N/A,,Overcast,20,2014-02-25 06:52:00
1:52 AM,34.0,17.1,50,30.17,10.0,NE,5.8,-,N/A,,Overcast,40,2014-02-25 07:52:00
2:52 AM,33.1,17.1,52,30.16,10.0,NE,3.5,-,N/A,,Overcast,50,2014-02-25 08:52:00
3:52 AM,33.1,18.0,54,30.16,10.0,North,4.6,-,N/A,,Overcast,10,2014-02-25 09:52:00
4:52 AM,32.0,19.0,59,30.18,10.0,North,6.9,-,N/A,,Mostly Cloudy,360,2014-02-25 10:52:00
5:52 AM,30.0,19.9,66,30.19,10.0,North,5.8,-,N/A,,Mostly Cloudy,360,2014-02-25 11:52:00
6:52 AM,28.9,21.0,72,30.21,10.0,North,5.8,-,N/A,,Partly Cloudy,10,2014-02-25 12:52:00
7:52 AM,32.0,19.9,61,30.23,10.0,North,10.4,-,N/A,,Clear,10,2014-02-25 13:52:00
8:52 AM,35.1,19.0,52,30.23,10.0,NNE,9.2,-,N/A,,Clear,20,2014-02-25 14:52:00
9:52 AM,37.9,16.0,41,30.23,10.0,NNE,5.8,-,N/A,,Clear,20,2014-02-25 15:52:00
10:52 AM,39.9,15.1,36,30.22,10.0,Variable,3.5,-,N/A,,Clear,0,2014-02-25 16:52:00
11:52 AM,43.0,16.0,34,30.20,10.0,North,8.1,-,N/A,,Clear,10,2014-02-25 17:52:00
12:52 PM,43.0,16.0,34,30.16,10.0,NNE,5.8,-,N/A,,Clear,20,2014-02-25 18:52:00
1:52 PM,44.1,17.1,34,30.14,10.0,NNW,6.9,-,N/A,,Clear,330,2014-02-25 19:52:00
2:52 PM,43.0,19.0,38,30.14,10.0,NNW,5.8,-,N/A,,Clear,330,2014-02-25 20:52:00
3:52 PM,43.0,19.0,38,30.13,10.0,North,9.2,-,N/A,,Clear,360,2014-02-25 21:52:00
4:52 PM,39.9,21.0,47,30.14,10.0,North,15.0,20.7,N/A,,Clear,350,2014-02-25 22:52:00
5:52 PM,37.0,21.0,52,30.15,10.0,North,16.1,-,N/A,,Clear,360,2014-02-25 23:52:00
6:52 PM,34.0,21.9,61,30.17,10.0,North,15.0,-,N/A,,Clear,350,2014-02-26 00:52:00
7:52 PM,33.1,21.9,64,30.16,10.0,North,13.8,-,N/A,,Mostly Cloudy,10,2014-02-26 01:52:00
8:52 PM,32.0,21.0,64,30.17,10.0,North,8.1,-,N/A,,Overcast,360,2014-02-26 02:52:00
9:52 PM,30.9,19.9,64,30.17,10.0,North,15.0,-,N/A,,Overcast,360,2014-02-26 03:52:00
10:52 PM,30.0,19.9,66,30.18,10.0,North,12.7,-,N/A,,Overcast,360,2014-02-26 04:52:00
11:52 PM,30.0,19.9,66,30.18,10.0,North,10.4,18.4,N/A,,Overcast,350,2014-02-26 05:52:00
11:59 PM,30.2,19.4,64,30.16,10.0,NNW,12.7,-,N/A,,Overcast,340,2014-02-26 05:59:00